Bakerton, West Virginia
Current Conditions -  °F | °C
As of 1:53 PM on Tuesday 27 Jan 2015 (Local Time) from KMRB Reporting Station
Light Snow Light Snow  
Wind Chill: 21°   Ceiling: 4300
Heat Index: 31°   Visibility: 6mi
Dew Point: 22°   Wind: 13mph
Humidity: 69%   Direction: 310°NW
Pressure: 29.83"   Gusts: NA
Location:  39.36°N, 77.76°W
Report Text: KMRB 271853Z 31011KT 6SM -SN BKN043 OVC050 M01/M06 A2983 RMK AO2 SLP106 P0002 T10061056
Loading
Personal Weather Stations






























Interactive Weather Map New forecast layout! Learn more

10-Day Weather Forecast

Advertisements
Track Severe Weather on mobile